Terminal Aerodrome Forecast
Issued by NWS

Home | Current Version | Previous Version | Text Only | Print | Product List | Glossary On
Versions: 1 2 3 4 5 6 7 8 9 10 11 12 13
000
FTUS45 KABQ 231700
TAFAEG
TAF
KAEG 231723Z 2318/2418 23011KT P6SM FEW045
     FM232100 24010KT P6SM FEW090
     FM240200 VRB05KT P6SM FEW090=

USA.gov is the U.S. government's official web portal to all federal, state and local government web resources and services.